sensor_id;sensor_type;location;lat;lon;timestamp;P1;durP1;ratioP1;P2;durP2;ratioP2
28774;SDS011;15926;51.348;6.596;2022-10-13T04:01:09;25.13;;;13.25;;
28774;SDS011;15926;51.348;6.596;2022-10-13T04:03:35;26.85;;;12.70;;
28774;SDS011;15926;51.348;6.596;2022-10-13T04:06:02;29.38;;;14.00;;
28774;SDS011;15926;51.348;6.596;2022-10-13T04:08:37;27.15;;;14.05;;
28774;SDS011;15926;51.348;6.596;2022-10-13T04:11:05;25.42;;;12.95;;
28774;SDS011;15926;51.348;6.596;2022-10-13T04:13:34;30.10;;;13.45;;
28774;SDS011;15926;51.348;6.596;2022-10-13T04:16:28;29.30;;;12.90;;
28774;SDS011;15926;51.348;6.596;2022-10-13T04:19:13;27.17;;;13.07;;
28774;SDS011;15926;51.348;6.596;2022-10-13T04:21:51;26.45;;;12.85;;
28774;SDS011;15926;51.348;6.596;2022-10-13T04:24:18;26.20;;;13.80;;
28774;SDS011;15926;51.348;6.596;2022-10-13T04:26:44;29.38;;;13.55;;
28774;SDS011;15926;51.348;6.596;2022-10-13T04:29:19;22.52;;;12.93;;
28774;SDS011;15926;51.348;6.596;2022-10-13T04:31:45;31.85;;;13.68;;
28774;SDS011;15926;51.348;6.596;2022-10-13T04:34:11;26.10;;;13.05;;
28774;SDS011;15926;51.348;6.596;2022-10-13T04:36:37;23.42;;;13.02;;
28774;SDS011;15926;51.348;6.596;2022-10-13T04:39:03;29.13;;;14.13;;
28774;SDS011;15926;51.348;6.596;2022-10-13T04:41:33;26.98;;;13.48;;
28774;SDS011;15926;51.348;6.596;2022-10-13T04:44:08;30.65;;;13.45;;
28774;SDS011;15926;51.348;6.596;2022-10-13T04:46:34;23.10;;;12.90;;
28774;SDS011;15926;51.348;6.596;2022-10-13T04:49:39;25.15;;;12.48;;
28774;SDS011;15926;51.348;6.596;2022-10-13T04:55:02;27.90;;;12.73;;
28774;SDS011;15926;51.348;6.596;2022-10-13T04:57:29;24.35;;;12.93;;
28774;SDS011;15926;51.348;6.596;2022-10-13T04:59:55;27.83;;;13.30;;
28774;SDS011;15926;51.348;6.596;2022-10-13T05:02:21;28.88;;;12.93;;
28774;SDS011;15926;51.348;6.596;2022-10-13T05:04:47;30.58;;;13.85;;
28774;SDS011;15926;51.348;6.596;2022-10-13T05:07:13;31.70;;;14.32;;
28774;SDS011;15926;51.348;6.596;2022-10-13T05:09:39;26.52;;;13.38;;
28774;SDS011;15926;51.348;6.596;2022-10-13T05:12:06;29.60;;;14.50;;
28774;SDS011;15926;51.348;6.596;2022-10-13T05:14:32;29.90;;;15.18;;
28774;SDS011;15926;51.348;6.596;2022-10-13T05:16:59;28.58;;;14.10;;
28774;SDS011;15926;51.348;6.596;2022-10-13T05:19:25;29.63;;;14.60;;
28774;SDS011;15926;51.348;6.596;2022-10-13T05:21:51;38.80;;;15.60;;
28774;SDS011;15926;51.348;6.596;2022-10-13T05:24:17;36.47;;;15.15;;
28774;SDS011;15926;51.348;6.596;2022-10-13T05:26:54;31.50;;;14.65;;
28774;SDS011;15926;51.348;6.596;2022-10-13T05:29:20;31.60;;;15.40;;
28774;SDS011;15926;51.348;6.596;2022-10-13T05:31:47;40.38;;;16.67;;
28774;SDS011;15926;51.348;6.596;2022-10-13T05:34:13;32.42;;;14.90;;
28774;SDS011;15926;51.348;6.596;2022-10-13T05:36:39;33.42;;;15.05;;
28774;SDS011;15926;51.348;6.596;2022-10-13T05:39:05;31.67;;;14.93;;
28774;SDS011;15926;51.348;6.596;2022-10-13T05:41:44;34.00;;;15.52;;
28774;SDS011;15926;51.348;6.596;2022-10-13T05:44:10;30.48;;;15.63;;
28774;SDS011;15926;51.348;6.596;2022-10-13T05:46:36;39.13;;;15.65;;
28774;SDS011;15926;51.348;6.596;2022-10-13T05:49:02;33.40;;;16.20;;
28774;SDS011;15926;51.348;6.596;2022-10-13T05:51:29;32.35;;;16.40;;
28774;SDS011;15926;51.348;6.596;2022-10-13T05:54:11;30.88;;;15.35;;
28774;SDS011;15926;51.348;6.596;2022-10-13T05:56:39;28.92;;;15.98;;
28774;SDS011;15926;51.348;6.596;2022-10-13T05:59:08;31.45;;;13.93;;
28774;SDS011;15926;51.348;6.596;2022-10-13T06:01:38;35.10;;;14.88;;
28774;SDS011;15926;51.348;6.596;2022-10-13T06:04:11;33.85;;;15.25;;
28774;SDS011;15926;51.348;6.596;2022-10-13T06:06:38;32.95;;;16.20;;
28774;SDS011;15926;51.348;6.596;2022-10-13T06:09:04;32.20;;;15.38;;
28774;SDS011;15926;51.348;6.596;2022-10-13T06:11:37;33.03;;;14.93;;
28774;SDS011;15926;51.348;6.596;2022-10-13T06:14:03;31.15;;;14.10;;
28774;SDS011;15926;51.348;6.596;2022-10-13T06:18:57;33.40;;;14.70;;
28774;SDS011;15926;51.348;6.596;2022-10-13T06:21:23;33.45;;;15.18;;
28774;SDS011;15926;51.348;6.596;2022-10-13T06:23:49;33.45;;;16.00;;
28774;SDS011;15926;51.348;6.596;2022-10-13T06:26:18;34.17;;;16.33;;
28774;SDS011;15926;51.348;6.596;2022-10-13T06:28:44;33.63;;;15.23;;
28774;SDS011;15926;51.348;6.596;2022-10-13T06:31:26;29.73;;;15.18;;
28774;SDS011;15926;51.348;6.596;2022-10-13T06:33:53;33.30;;;15.55;;
28774;SDS011;15926;51.348;6.596;2022-10-13T06:36:19;37.92;;;15.80;;
28774;SDS011;15926;51.348;6.596;2022-10-13T06:38:45;35.45;;;16.48;;
28774;SDS011;15926;51.348;6.596;2022-10-13T06:41:11;34.92;;;16.40;;
28774;SDS011;15926;51.348;6.596;2022-10-13T06:43:38;33.80;;;16.60;;
28774;SDS011;15926;51.348;6.596;2022-10-13T06:46:04;35.30;;;16.95;;
28774;SDS011;15926;51.348;6.596;2022-10-13T06:48:30;37.70;;;16.23;;
28774;SDS011;15926;51.348;6.596;2022-10-13T06:51:03;34.22;;;16.77;;
28774;SDS011;15926;51.348;6.596;2022-10-13T06:53:29;32.30;;;15.95;;
28774;SDS011;15926;51.348;6.596;2022-10-13T06:55:56;31.55;;;15.43;;
28774;SDS011;15926;51.348;6.596;2022-10-13T06:58:22;33.13;;;15.95;;
28774;SDS011;15926;51.348;6.596;2022-10-13T07:00:48;32.50;;;15.90;;
28774;SDS011;15926;51.348;6.596;2022-10-13T07:03:15;32.17;;;14.60;;
28774;SDS011;15926;51.348;6.596;2022-10-13T07:05:41;31.23;;;14.57;;
28774;SDS011;15926;51.348;6.596;2022-10-13T07:08:10;25.85;;;14.05;;
28774;SDS011;15926;51.348;6.596;2022-10-13T07:10:36;25.70;;;14.02;;
28774;SDS011;15926;51.348;6.596;2022-10-13T07:13:02;29.92;;;13.82;;
28774;SDS011;15926;51.348;6.596;2022-10-13T07:15:28;28.27;;;14.23;;
28774;SDS011;15926;51.348;6.596;2022-10-13T07:17:55;24.73;;;12.38;;
28774;SDS011;15926;51.348;6.596;2022-10-13T07:20:21;28.88;;;12.40;;
28774;SDS011;15926;51.348;6.596;2022-10-13T07:22:47;24.23;;;13.20;;
28774;SDS011;15926;51.348;6.596;2022-10-13T07:25:14;28.17;;;13.07;;
28774;SDS011;15926;51.348;6.596;2022-10-13T07:27:40;19.52;;;11.27;;
28774;SDS011;15926;51.348;6.596;2022-10-13T07:30:08;21.27;;;11.98;;
28774;SDS011;15926;51.348;6.596;2022-10-13T07:32:34;19.45;;;11.20;;
28774;SDS011;15926;51.348;6.596;2022-10-13T07:35:01;16.73;;;10.65;;
28774;SDS011;15926;51.348;6.596;2022-10-13T07:37:27;20.15;;;10.73;;
28774;SDS011;15926;51.348;6.596;2022-10-13T07:39:54;21.25;;;10.13;;
28774;SDS011;15926;51.348;6.596;2022-10-13T07:42:26;15.80;;;10.27;;
28774;SDS011;15926;51.348;6.596;2022-10-13T07:45:23;19.77;;;11.02;;
28774;SDS011;15926;51.348;6.596;2022-10-13T07:53:41;16.05;;;10.15;;
28774;SDS011;15926;51.348;6.596;2022-10-13T07:56:25;16.75;;;9.43;;
28774;SDS011;15926;51.348;6.596;2022-10-13T07:59:03;14.85;;;9.98;;
28774;SDS011;15926;51.348;6.596;2022-10-13T08:01:30;18.10;;;10.32;;
28774;SDS011;15926;51.348;6.596;2022-10-13T08:04:16;18.60;;;10.75;;
28774;SDS011;15926;51.348;6.596;2022-10-13T08:06:42;20.90;;;10.75;;
28774;SDS011;15926;51.348;6.596;2022-10-13T08:09:09;17.85;;;9.93;;
28774;SDS011;15926;51.348;6.596;2022-10-13T08:11:56;15.93;;;9.20;;
28774;SDS011;15926;51.348;6.596;2022-10-13T08:14:42;17.17;;;9.57;;
28774;SDS011;15926;51.348;6.596;2022-10-13T08:17:10;16.67;;;9.50;;
28774;SDS011;15926;51.348;6.596;2022-10-13T08:19:42;19.23;;;9.57;;
28774;SDS011;15926;51.348;6.596;2022-10-13T08:22:09;20.23;;;9.07;;
28774;SDS011;15926;51.348;6.596;2022-10-13T08:31:16;16.52;;;8.93;;
28774;SDS011;15926;51.348;6.596;2022-10-13T08:33:46;17.60;;;8.90;;
28774;SDS011;15926;51.348;6.596;2022-10-13T08:42:37;15.38;;;9.15;;
28774;SDS011;15926;51.348;6.596;2022-10-13T08:51:26;16.35;;;8.43;;
28774;SDS011;15926;51.348;6.596;2022-10-13T08:57:25;14.75;;;8.73;;
28774;SDS011;15926;51.348;6.596;2022-10-13T09:03:31;17.13;;;8.38;;
28774;SDS011;15926;51.348;6.596;2022-10-13T09:06:26;12.30;;;7.90;;
28774;SDS011;15926;51.348;6.596;2022-10-13T09:10:25;13.00;;;7.72;;
28774;SDS011;15926;51.348;6.596;2022-10-13T09:15:46;12.15;;;8.02;;
28774;SDS011;15926;51.348;6.596;2022-10-13T09:24:47;13.30;;;7.38;;
28774;SDS011;15926;51.348;6.596;2022-10-13T09:27:17;14.07;;;7.22;;
28774;SDS011;15926;51.348;6.596;2022-10-13T09:29:44;13.93;;;8.07;;
28774;SDS011;15926;51.348;6.596;2022-10-13T09:32:29;14.35;;;8.05;;
28774;SDS011;15926;51.348;6.596;2022-10-13T09:50:23;13.75;;;7.05;;
28774;SDS011;15926;51.348;6.596;2022-10-13T09:52:51;12.02;;;7.57;;
28774;SDS011;15926;51.348;6.596;2022-10-13T09:55:33;12.25;;;7.43;;
28774;SDS011;15926;51.348;6.596;2022-10-13T09:58:13;11.32;;;7.32;;
28774;SDS011;15926;51.348;6.596;2022-10-13T10:03:33;10.15;;;6.85;;
28774;SDS011;15926;51.348;6.596;2022-10-13T10:06:04;9.27;;;7.25;;
28774;SDS011;15926;51.348;6.596;2022-10-13T10:11:38;13.23;;;6.82;;
28774;SDS011;15926;51.348;6.596;2022-10-13T10:22:09;10.77;;;6.55;;
28774;SDS011;15926;51.348;6.596;2022-10-13T10:27:17;9.60;;;6.05;;
28774;SDS011;15926;51.348;6.596;2022-10-13T10:37:45;12.13;;;6.60;;
28774;SDS011;15926;51.348;6.596;2022-10-13T10:40:23;12.05;;;6.65;;
28774;SDS011;15926;51.348;6.596;2022-10-13T10:45:59;10.40;;;5.95;;
28774;SDS011;15926;51.348;6.596;2022-10-13T10:48:33;9.35;;;6.22;;
28774;SDS011;15926;51.348;6.596;2022-10-13T10:51:09;9.15;;;5.97;;
28774;SDS011;15926;51.348;6.596;2022-10-13T10:53:43;10.20;;;6.10;;
28774;SDS011;15926;51.348;6.596;2022-10-13T10:56:26;7.60;;;5.80;;
28774;SDS011;15926;51.348;6.596;2022-10-13T11:01:32;9.05;;;5.78;;
28774;SDS011;15926;51.348;6.596;2022-10-13T11:07:06;11.57;;;6.03;;
28774;SDS011;15926;51.348;6.596;2022-10-13T11:18:15;11.35;;;7.18;;
28774;SDS011;15926;51.348;6.596;2022-10-13T11:20:53;12.95;;;5.80;;
28774;SDS011;15926;51.348;6.596;2022-10-13T11:23:28;12.23;;;5.60;;
28774;SDS011;15926;51.348;6.596;2022-10-13T11:26:17;10.18;;;5.60;;
28774;SDS011;15926;51.348;6.596;2022-10-13T11:28:44;9.40;;;5.90;;
28774;SDS011;15926;51.348;6.596;2022-10-13T11:39:06;4.35;;;3.95;;
28774;SDS011;15926;51.348;6.596;2022-10-13T11:47:25;7.72;;;4.63;;
28774;SDS011;15926;51.348;6.596;2022-10-13T11:58:11;9.82;;;4.70;;
28774;SDS011;15926;51.348;6.596;2022-10-13T12:00:50;7.15;;;4.70;;
28774;SDS011;15926;51.348;6.596;2022-10-13T12:03:34;6.30;;;4.20;;
28774;SDS011;15926;51.348;6.596;2022-10-13T12:06:24;5.57;;;4.38;;
28774;SDS011;15926;51.348;6.596;2022-10-13T12:08:57;6.25;;;4.68;;
28774;SDS011;15926;51.348;6.596;2022-10-13T12:11:23;7.63;;;4.78;;
28774;SDS011;15926;51.348;6.596;2022-10-13T12:13:51;10.75;;;4.43;;
28774;SDS011;15926;51.348;6.596;2022-10-13T12:16:23;7.72;;;4.78;;
28774;SDS011;15926;51.348;6.596;2022-10-13T12:19:08;7.78;;;4.72;;
28774;SDS011;15926;51.348;6.596;2022-10-13T12:22:00;6.85;;;4.55;;
28774;SDS011;15926;51.348;6.596;2022-10-13T12:24:29;6.30;;;4.68;;
28774;SDS011;15926;51.348;6.596;2022-10-13T12:26:56;7.60;;;4.35;;
28774;SDS011;15926;51.348;6.596;2022-10-13T12:29:26;6.85;;;4.43;;
28774;SDS011;15926;51.348;6.596;2022-10-13T12:31:53;6.10;;;4.05;;
28774;SDS011;15926;51.348;6.596;2022-10-13T12:39:21;8.48;;;5.25;;
28774;SDS011;15926;51.348;6.596;2022-10-13T12:41:49;10.13;;;5.13;;
28774;SDS011;15926;51.348;6.596;2022-10-13T12:44:19;5.45;;;4.45;;
28774;SDS011;15926;51.348;6.596;2022-10-13T12:46:48;9.77;;;5.15;;
28774;SDS011;15926;51.348;6.596;2022-10-13T12:49:26;7.88;;;4.60;;
28774;SDS011;15926;51.348;6.596;2022-10-13T12:54:28;9.65;;;5.43;;
28774;SDS011;15926;51.348;6.596;2022-10-13T12:57:00;7.43;;;4.65;;
28774;SDS011;15926;51.348;6.596;2022-10-13T12:59:29;5.90;;;4.40;;
28774;SDS011;15926;51.348;6.596;2022-10-13T13:01:57;10.00;;;4.93;;
28774;SDS011;15926;51.348;6.596;2022-10-13T13:06:56;13.27;;;7.60;;
28774;SDS011;15926;51.348;6.596;2022-10-13T13:12:01;11.38;;;5.45;;
28774;SDS011;15926;51.348;6.596;2022-10-13T13:17:23;6.38;;;4.50;;
28774;SDS011;15926;51.348;6.596;2022-10-13T13:19:51;6.57;;;4.30;;
28774;SDS011;15926;51.348;6.596;2022-10-13T13:22:17;8.60;;;4.70;;
28774;SDS011;15926;51.348;6.596;2022-10-13T13:32:17;5.65;;;3.92;;
28774;SDS011;15926;51.348;6.596;2022-10-13T13:34:44;5.93;;;4.25;;
28774;SDS011;15926;51.348;6.596;2022-10-13T13:37:29;5.85;;;4.68;;
28774;SDS011;15926;51.348;6.596;2022-10-13T13:39:55;9.43;;;5.25;;
28774;SDS011;15926;51.348;6.596;2022-10-13T13:42:21;5.47;;;4.75;;
28774;SDS011;15926;51.348;6.596;2022-10-13T13:44:47;7.53;;;5.07;;
28774;SDS011;15926;51.348;6.596;2022-10-13T13:47:23;8.60;;;4.53;;
28774;SDS011;15926;51.348;6.596;2022-10-13T13:49:53;8.32;;;4.55;;
28774;SDS011;15926;51.348;6.596;2022-10-13T13:52:25;9.45;;;4.80;;
28774;SDS011;15926;51.348;6.596;2022-10-13T13:54:51;6.68;;;4.47;;
28774;SDS011;15926;51.348;6.596;2022-10-13T13:57:20;6.38;;;5.50;;
28774;SDS011;15926;51.348;6.596;2022-10-13T13:59:52;8.55;;;5.57;;
28774;SDS011;15926;51.348;6.596;2022-10-13T14:02:21;8.23;;;5.22;;
28774;SDS011;15926;51.348;6.596;2022-10-13T14:04:47;6.80;;;5.88;;
28774;SDS011;15926;51.348;6.596;2022-10-13T14:07:13;7.35;;;5.80;;
28774;SDS011;15926;51.348;6.596;2022-10-13T14:09:39;10.80;;;6.47;;
28774;SDS011;15926;51.348;6.596;2022-10-13T14:12:05;9.95;;;5.78;;
28774;SDS011;15926;51.348;6.596;2022-10-13T14:14:31;9.32;;;6.00;;
28774;SDS011;15926;51.348;6.596;2022-10-13T14:16:58;9.05;;;5.45;;
28774;SDS011;15926;51.348;6.596;2022-10-13T14:19:24;7.40;;;6.00;;
28774;SDS011;15926;51.348;6.596;2022-10-13T14:21:50;11.55;;;6.40;;
28774;SDS011;15926;51.348;6.596;2022-10-13T14:24:16;10.57;;;6.28;;
28774;SDS011;15926;51.348;6.596;2022-10-13T14:26:43;11.88;;;6.15;;
28774;SDS011;15926;51.348;6.596;2022-10-13T14:29:09;8.40;;;6.40;;
28774;SDS011;15926;51.348;6.596;2022-10-13T14:31:35;13.73;;;7.78;;
28774;SDS011;15926;51.348;6.596;2022-10-13T14:34:01;11.77;;;7.07;;
28774;SDS011;15926;51.348;6.596;2022-10-13T14:36:30;11.02;;;7.45;;
28774;SDS011;15926;51.348;6.596;2022-10-13T14:41:22;13.50;;;7.22;;
28774;SDS011;15926;51.348;6.596;2022-10-13T14:43:52;13.55;;;7.80;;
28774;SDS011;15926;51.348;6.596;2022-10-13T14:46:18;10.88;;;7.70;;
28774;SDS011;15926;51.348;6.596;2022-10-13T14:48:45;11.63;;;8.20;;
28774;SDS011;15926;51.348;6.596;2022-10-13T14:51:11;13.30;;;7.53;;
28774;SDS011;15926;51.348;6.596;2022-10-13T14:53:38;10.32;;;7.75;;
28774;SDS011;15926;51.348;6.596;2022-10-13T14:58:43;12.90;;;8.32;;
28774;SDS011;15926;51.348;6.596;2022-10-13T15:01:36;14.25;;;8.50;;
28774;SDS011;15926;51.348;6.596;2022-10-13T15:04:05;17.38;;;8.65;;
28774;SDS011;15926;51.348;6.596;2022-10-13T15:09:09;10.95;;;7.60;;
28774;SDS011;15926;51.348;6.596;2022-10-13T15:11:55;13.27;;;7.70;;
28774;SDS011;15926;51.348;6.596;2022-10-13T15:14:21;14.63;;;7.78;;
28774;SDS011;15926;51.348;6.596;2022-10-13T15:16:47;13.55;;;8.02;;
28774;SDS011;15926;51.348;6.596;2022-10-13T15:19:16;14.15;;;6.80;;
28774;SDS011;15926;51.348;6.596;2022-10-13T15:21:42;13.20;;;8.25;;
28774;SDS011;15926;51.348;6.596;2022-10-13T15:24:11;10.85;;;7.43;;
28774;SDS011;15926;51.348;6.596;2022-10-13T15:26:37;12.02;;;7.57;;
28774;SDS011;15926;51.348;6.596;2022-10-13T15:29:03;12.27;;;7.47;;
28774;SDS011;15926;51.348;6.596;2022-10-13T15:31:29;13.65;;;7.75;;
28774;SDS011;15926;51.348;6.596;2022-10-13T15:33:55;13.52;;;8.32;;
28774;SDS011;15926;51.348;6.596;2022-10-13T15:36:22;16.75;;;9.02;;
28774;SDS011;15926;51.348;6.596;2022-10-13T15:38:49;12.38;;;9.20;;
28774;SDS011;15926;51.348;6.596;2022-10-13T15:41:15;13.25;;;9.15;;
28774;SDS011;15926;51.348;6.596;2022-10-13T15:43:41;15.63;;;9.40;;
28774;SDS011;15926;51.348;6.596;2022-10-13T15:46:09;19.92;;;11.68;;
28774;SDS011;15926;51.348;6.596;2022-10-13T15:48:46;22.55;;;11.48;;
28774;SDS011;15926;51.348;6.596;2022-10-13T15:51:13;24.65;;;11.77;;
28774;SDS011;15926;51.348;6.596;2022-10-13T15:53:43;18.55;;;11.50;;
28774;SDS011;15926;51.348;6.596;2022-10-13T16:04:55;22.45;;;12.18;;
28774;SDS011;15926;51.348;6.596;2022-10-13T16:07:31;20.35;;;11.82;;
28774;SDS011;15926;51.348;6.596;2022-10-13T16:10:22;20.67;;;12.40;;
28774;SDS011;15926;51.348;6.596;2022-10-13T16:16:03;22.10;;;13.43;;
28774;SDS011;15926;51.348;6.596;2022-10-13T16:18:38;20.25;;;12.23;;
28774;SDS011;15926;51.348;6.596;2022-10-13T16:21:10;25.25;;;13.98;;
28774;SDS011;15926;51.348;6.596;2022-10-13T16:23:36;18.35;;;12.40;;
28774;SDS011;15926;51.348;6.596;2022-10-13T16:26:03;16.98;;;11.52;;
28774;SDS011;15926;51.348;6.596;2022-10-13T16:28:30;23.98;;;12.13;;
28774;SDS011;15926;51.348;6.596;2022-10-13T16:31:17;17.58;;;12.30;;
28774;SDS011;15926;51.348;6.596;2022-10-13T16:36:47;17.48;;;11.43;;
28774;SDS011;15926;51.348;6.596;2022-10-13T16:39:13;16.38;;;9.88;;
28774;SDS011;15926;51.348;6.596;2022-10-13T16:41:39;19.27;;;10.57;;
28774;SDS011;15926;51.348;6.596;2022-10-13T16:44:14;12.88;;;9.65;;
28774;SDS011;15926;51.348;6.596;2022-10-13T16:49:44;19.98;;;10.27;;
28774;SDS011;15926;51.348;6.596;2022-10-13T16:58:17;13.07;;;9.13;;
28774;SDS011;15926;51.348;6.596;2022-10-13T17:01:04;16.60;;;10.15;;
28774;SDS011;15926;51.348;6.596;2022-10-13T17:03:32;14.35;;;9.07;;
28774;SDS011;15926;51.348;6.596;2022-10-13T17:05:59;16.85;;;10.02;;
28774;SDS011;15926;51.348;6.596;2022-10-13T17:08:38;15.85;;;9.52;;
28774;SDS011;15926;51.348;6.596;2022-10-13T17:11:07;16.20;;;10.27;;
28774;SDS011;15926;51.348;6.596;2022-10-13T17:13:33;12.02;;;8.80;;
28774;SDS011;15926;51.348;6.596;2022-10-13T17:16:01;13.95;;;8.65;;
28774;SDS011;15926;51.348;6.596;2022-10-13T17:18:27;13.60;;;9.35;;
28774;SDS011;15926;51.348;6.596;2022-10-13T17:20:54;16.48;;;10.57;;
28774;SDS011;15926;51.348;6.596;2022-10-13T17:23:21;15.70;;;10.25;;
28774;SDS011;15926;51.348;6.596;2022-10-13T17:25:48;16.17;;;9.82;;
28774;SDS011;15926;51.348;6.596;2022-10-13T17:28:14;16.40;;;10.98;;
28774;SDS011;15926;51.348;6.596;2022-10-13T17:31:03;16.55;;;11.02;;
28774;SDS011;15926;51.348;6.596;2022-10-13T17:33:32;19.52;;;11.70;;
28774;SDS011;15926;51.348;6.596;2022-10-13T17:35:59;18.40;;;11.25;;
28774;SDS011;15926;51.348;6.596;2022-10-13T17:39:13;16.60;;;10.55;;
28774;SDS011;15926;51.348;6.596;2022-10-13T17:41:21;14.60;;;10.32;;
28774;SDS011;15926;51.348;6.596;2022-10-13T17:44:09;19.08;;;11.82;;
28774;SDS011;15926;51.348;6.596;2022-10-13T17:46:44;18.65;;;11.55;;
28774;SDS011;15926;51.348;6.596;2022-10-13T17:49:11;21.35;;;11.60;;
28774;SDS011;15926;51.348;6.596;2022-10-13T17:51:38;18.00;;;12.35;;
28774;SDS011;15926;51.348;6.596;2022-10-13T17:54:34;17.05;;;12.23;;
28774;SDS011;15926;51.348;6.596;2022-10-13T17:57:00;17.45;;;11.05;;
28774;SDS011;15926;51.348;6.596;2022-10-13T17:59:35;16.42;;;11.75;;
28774;SDS011;15926;51.348;6.596;2022-10-13T18:02:04;17.60;;;12.65;;
28774;SDS011;15926;51.348;6.596;2022-10-13T18:04:30;18.88;;;11.20;;
28774;SDS011;15926;51.348;6.596;2022-10-13T18:06:56;25.48;;;13.15;;
28774;SDS011;15926;51.348;6.596;2022-10-13T18:09:23;23.08;;;13.73;;
28774;SDS011;15926;51.348;6.596;2022-10-13T18:11:49;21.33;;;13.20;;
28774;SDS011;15926;51.348;6.596;2022-10-13T18:14:18;22.63;;;13.88;;
28774;SDS011;15926;51.348;6.596;2022-10-13T18:16:44;21.15;;;13.88;;
28774;SDS011;15926;51.348;6.596;2022-10-13T18:19:10;20.42;;;13.93;;
28774;SDS011;15926;51.348;6.596;2022-10-13T18:21:46;24.85;;;13.77;;
28774;SDS011;15926;51.348;6.596;2022-10-13T18:24:13;20.17;;;13.20;;
28774;SDS011;15926;51.348;6.596;2022-10-13T18:26:39;24.55;;;14.27;;
28774;SDS011;15926;51.348;6.596;2022-10-13T18:29:05;23.23;;;14.05;;
28774;SDS011;15926;51.348;6.596;2022-10-13T18:31:33;26.13;;;14.38;;
28774;SDS011;15926;51.348;6.596;2022-10-13T18:34:00;22.58;;;13.90;;
28774;SDS011;15926;51.348;6.596;2022-10-13T18:36:27;23.85;;;14.88;;
28774;SDS011;15926;51.348;6.596;2022-10-13T18:38:54;26.48;;;14.80;;
28774;SDS011;15926;51.348;6.596;2022-10-13T18:41:21;21.05;;;14.32;;
28774;SDS011;15926;51.348;6.596;2022-10-13T18:43:47;23.83;;;14.52;;
28774;SDS011;15926;51.348;6.596;2022-10-13T18:46:13;28.52;;;15.02;;
28774;SDS011;15926;51.348;6.596;2022-10-13T18:48:39;26.30;;;15.80;;
28774;SDS011;15926;51.348;6.596;2022-10-13T18:51:09;22.80;;;14.43;;
28774;SDS011;15926;51.348;6.596;2022-10-13T18:53:36;28.88;;;15.25;;
28774;SDS011;15926;51.348;6.596;2022-10-13T18:59:05;26.65;;;14.93;;
28774;SDS011;15926;51.348;6.596;2022-10-13T19:02:08;28.88;;;16.27;;
28774;SDS011;15926;51.348;6.596;2022-10-13T19:04:34;24.73;;;16.45;;
28774;SDS011;15926;51.348;6.596;2022-10-13T19:07:03;30.80;;;16.02;;
28774;SDS011;15926;51.348;6.596;2022-10-13T19:09:29;27.38;;;16.75;;
28774;SDS011;15926;51.348;6.596;2022-10-13T19:11:55;28.92;;;17.10;;
28774;SDS011;15926;51.348;6.596;2022-10-13T19:14:24;30.67;;;17.55;;
28774;SDS011;15926;51.348;6.596;2022-10-13T19:16:51;32.10;;;17.95;;
28774;SDS011;15926;51.348;6.596;2022-10-13T19:19:18;32.08;;;17.90;;
28774;SDS011;15926;51.348;6.596;2022-10-13T19:22:09;26.80;;;17.65;;
28774;SDS011;15926;51.348;6.596;2022-10-13T19:24:35;27.77;;;18.38;;
28774;SDS011;15926;51.348;6.596;2022-10-13T19:27:10;31.63;;;18.75;;
28774;SDS011;15926;51.348;6.596;2022-10-13T19:29:56;25.05;;;16.42;;
28774;SDS011;15926;51.348;6.596;2022-10-13T19:32:22;33.58;;;18.25;;
28774;SDS011;15926;51.348;6.596;2022-10-13T19:35:00;32.17;;;18.38;;
28774;SDS011;15926;51.348;6.596;2022-10-13T19:37:26;30.83;;;18.05;;
28774;SDS011;15926;51.348;6.596;2022-10-13T19:40:06;30.77;;;18.10;;
28774;SDS011;15926;51.348;6.596;2022-10-13T19:42:35;28.05;;;17.17;;
28774;SDS011;15926;51.348;6.596;2022-10-13T19:45:02;31.75;;;18.38;;
28774;SDS011;15926;51.348;6.596;2022-10-13T19:47:29;33.95;;;16.98;;
28774;SDS011;15926;51.348;6.596;2022-10-13T19:49:56;28.85;;;16.80;;
28774;SDS011;15926;51.348;6.596;2022-10-13T19:52:22;28.88;;;17.02;;
28774;SDS011;15926;51.348;6.596;2022-10-13T19:54:51;26.33;;;15.25;;
28774;SDS011;15926;51.348;6.596;2022-10-13T19:57:17;27.60;;;16.83;;
28774;SDS011;15926;51.348;6.596;2022-10-13T19:59:43;21.42;;;14.88;;
28774;SDS011;15926;51.348;6.596;2022-10-13T20:02:09;25.33;;;15.68;;
28774;SDS011;15926;51.348;6.596;2022-10-13T20:04:35;24.92;;;14.88;;
28774;SDS011;15926;51.348;6.596;2022-10-13T20:07:02;23.42;;;13.63;;
28774;SDS011;15926;51.348;6.596;2022-10-13T20:09:37;24.20;;;13.65;;
28774;SDS011;15926;51.348;6.596;2022-10-13T20:12:04;17.50;;;12.45;;
28774;SDS011;15926;51.348;6.596;2022-10-13T20:14:30;19.35;;;12.57;;
28774;SDS011;15926;51.348;6.596;2022-10-13T20:16:58;21.52;;;12.00;;
28774;SDS011;15926;51.348;6.596;2022-10-13T20:19:24;20.38;;;11.32;;
28774;SDS011;15926;51.348;6.596;2022-10-13T20:21:50;19.33;;;11.45;;
28774;SDS011;15926;51.348;6.596;2022-10-13T20:24:20;18.17;;;11.20;;
28774;SDS011;15926;51.348;6.596;2022-10-13T20:26:47;15.73;;;10.68;;
28774;SDS011;15926;51.348;6.596;2022-10-13T20:29:15;20.27;;;11.15;;
28774;SDS011;15926;51.348;6.596;2022-10-13T20:31:43;20.95;;;11.18;;
28774;SDS011;15926;51.348;6.596;2022-10-13T20:34:18;15.18;;;10.05;;
28774;SDS011;15926;51.348;6.596;2022-10-13T20:36:48;17.85;;;10.38;;
28774;SDS011;15926;51.348;6.596;2022-10-13T20:39:14;16.58;;;10.65;;
28774;SDS011;15926;51.348;6.596;2022-10-13T20:41:43;16.85;;;10.40;;
28774;SDS011;15926;51.348;6.596;2022-10-13T20:44:09;16.42;;;9.95;;
28774;SDS011;15926;51.348;6.596;2022-10-13T20:46:35;15.80;;;9.25;;
28774;SDS011;15926;51.348;6.596;2022-10-13T20:49:02;15.50;;;9.68;;
28774;SDS011;15926;51.348;6.596;2022-10-13T20:54:30;10.40;;;8.35;;
28774;SDS011;15926;51.348;6.596;2022-10-13T20:56:56;14.38;;;8.80;;
28774;SDS011;15926;51.348;6.596;2022-10-13T20:59:22;12.98;;;8.32;;
